Time;durP1;ratioP1;P1;durP2;ratioP2;P2;SDS_P1;SDS_P2;PMS_P1;PMS_P2;Temp;Humidity;BMP_temperature;BMP_pressure;BME280_temperature;BME280_humidity;BME280_pressure;Samples;Min_cycle;Max_cycle;Signal;HPM_P1;HPM_P2
2023/01/15 00:00:50;;;;;;;7.40;0.57;;;7.70;99.90;;;;;;5067253;28;20039;-73
2023/01/15 00:03:16;;;;;;;11.48;0.60;;;7.70;99.90;;;;;;5050618;28;20079;-73
2023/01/15 00:05:42;;;;;;;5.60;0.30;;;7.70;99.90;;;;;;5067433;28;20037;-74
2023/01/15 00:08:07;;;;;;;7.93;0.35;;;7.60;99.90;;;;;;5069202;28;20096;-74
2023/01/15 00:10:34;;;;;;;5.30;0.40;;;7.60;99.90;;;;;;5064157;28;20096;-73
2023/01/15 00:12:59;;;;;;;5.13;0.40;;;7.60;99.90;;;;;;5065265;28;20029;-73
2023/01/15 00:15:25;;;;;;;8.45;0.50;;;7.70;99.90;;;;;;5059505;28;20028;-74
2023/01/15 00:17:51;;;;;;;11.23;0.98;;;7.70;99.90;;;;;;5081206;28;20028;-74
2023/01/15 00:20:16;;;;;;;8.07;0.60;;;7.70;99.90;;;;;;5055293;28;20047;-73
2023/01/15 00:22:42;;;;;;;10.48;0.95;;;7.70;99.90;;;;;;5066491;28;20029;-73
2023/01/15 00:27:54;;;;;;;6.85;1.00;;;7.80;99.90;;;;;;5065396;28;20047;-73
2023/01/15 00:30:20;;;;;;;6.63;0.60;;;7.80;99.90;;;;;;5065345;28;20480;-74
2023/01/15 00:32:45;;;;;;;8.15;0.60;;;7.70;99.90;;;;;;5060642;28;20281;-73
2023/01/15 00:35:14;;;;;;;8.15;0.60;;;7.70;99.90;;;;;;5079766;28;20036;-74
2023/01/15 00:37:39;;;;;;;10.95;0.50;;;7.70;99.90;;;;;;5054778;28;20021;-74
2023/01/15 00:40:05;;;;;;;5.55;0.40;;;7.70;99.90;;;;;;5059468;28;20150;-73
2023/01/15 00:42:31;;;;;;;9.70;0.60;;;7.70;99.90;;;;;;5051728;28;20472;-73
2023/01/15 00:44:56;;;;;;;8.30;1.05;;;7.70;99.90;;;;;;5058699;28;20470;-73
2023/01/15 00:47:22;;;;;;;6.13;0.93;;;7.70;99.90;;;;;;5059944;28;20021;-73
2023/01/15 00:49:49;;;;;;;9.02;0.90;;;7.70;99.90;;;;;;5068150;28;20488;-73
2023/01/15 00:52:14;;;;;;;4.78;0.57;;;7.70;99.90;;;;;;5068426;28;20473;-74
2023/01/15 00:54:40;;;;;;;6.78;0.57;;;7.70;99.90;;;;;;5058973;28;20081;-73
2023/01/15 00:57:06;;;;;;;7.55;0.40;;;7.70;99.90;;;;;;5065751;28;20107;-73
2023/01/15 00:59:31;;;;;;;10.68;0.60;;;7.70;99.90;;;;;;5064828;28;20078;-73
2023/01/15 01:01:58;;;;;;;6.28;0.35;;;7.70;99.90;;;;;;5060553;28;20025;-73
2023/01/15 01:04:23;;;;;;;7.22;0.98;;;7.70;99.90;;;;;;5068653;28;20369;-73
2023/01/15 01:06:49;;;;;;;11.60;1.30;;;7.70;99.90;;;;;;5077275;28;20091;-73
2023/01/15 01:09:15;;;;;;;6.50;0.43;;;7.60;99.90;;;;;;5069822;28;20081;-73
2023/01/15 01:11:41;;;;;;;10.60;0.50;;;7.60;99.90;;;;;;5079653;28;20037;-73
2023/01/15 01:14:09;;;;;;;12.77;1.17;;;7.60;99.90;;;;;;5067658;28;20035;-73
2023/01/15 01:16:37;;;;;;;9.80;0.70;;;7.60;99.90;;;;;;5077970;28;20099;-73
2023/01/15 01:19:14;;;;;;;5.80;0.52;;;7.50;99.90;;;;;;5061693;28;20516;-73
2023/01/15 01:21:42;;;;;;;10.50;0.80;;;7.60;99.90;;;;;;5059621;28;20047;-73
2023/01/15 01:24:10;;;;;;;8.70;0.60;;;7.50;99.90;;;;;;5064866;28;20020;-73
2023/01/15 01:26:36;;;;;;;6.70;0.85;;;7.50;99.90;;;;;;5065263;28;20130;-73
2023/01/15 01:29:02;;;;;;;11.88;0.60;;;7.50;99.90;;;;;;5072741;28;20074;-73
2023/01/15 01:31:28;;;;;;;15.48;0.85;;;7.50;99.90;;;;;;5068664;28;20027;-73
2023/01/15 01:33:55;;;;;;;7.53;0.60;;;7.50;99.90;;;;;;5065478;28;20020;-73
2023/01/15 01:36:27;;;;;;;8.98;1.23;;;7.50;99.90;;;;;;5062375;28;20428;-75
2023/01/15 01:38:52;;;;;;;11.27;0.50;;;7.50;99.90;;;;;;5058476;28;20043;-73
2023/01/15 01:41:18;;;;;;;7.72;0.82;;;7.50;99.90;;;;;;5069237;28;20107;-73
2023/01/15 01:43:58;;;;;;;10.13;0.50;;;7.50;99.90;;;;;;5063738;28;20040;-73
2023/01/15 01:46:24;;;;;;;6.50;0.50;;;7.50;99.90;;;;;;5071974;28;20032;-74
2023/01/15 01:48:54;;;;;;;7.50;1.42;;;7.50;99.90;;;;;;5070217;28;20075;-73
2023/01/15 01:51:23;;;;;;;9.13;0.40;;;7.40;99.90;;;;;;5082378;28;20055;-74
2023/01/15 01:53:48;;;;;;;6.25;0.30;;;7.40;99.90;;;;;;5083434;28;20069;-73
2023/01/15 01:56:16;;;;;;;7.57;0.40;;;7.40;99.90;;;;;;5074430;28;20025;-73
2023/01/15 01:58:46;;;;;;;4.70;0.47;;;7.40;99.90;;;;;;5059168;28;20075;-73
2023/01/15 02:01:11;;;;;;;12.20;0.43;;;7.40;99.90;;;;;;5068977;28;20040;-73
2023/01/15 02:03:37;;;;;;;5.35;0.57;;;7.30;99.90;;;;;;5058626;28;20400;-73
2023/01/15 02:06:07;;;;;;;10.68;0.68;;;7.30;99.90;;;;;;5052699;28;20057;-73
2023/01/15 02:08:33;;;;;;;7.25;0.55;;;7.30;99.90;;;;;;5062688;28;20032;-73
2023/01/15 02:11:00;;;;;;;5.80;0.40;;;7.30;99.90;;;;;;5079757;28;20433;-73
2023/01/15 02:13:38;;;;;;;9.38;0.63;;;7.30;99.90;;;;;;5067636;28;20531;-73
2023/01/15 02:16:17;;;;;;;6.40;0.52;;;7.30;99.90;;;;;;5061234;28;20086;-73
2023/01/15 02:19:01;;;;;;;7.25;0.55;;;7.30;99.90;;;;;;5069972;28;20029;-73
2023/01/15 02:21:26;;;;;;;6.13;0.55;;;7.20;99.90;;;;;;5083796;28;20454;-74
2023/01/15 02:24:04;;;;;;;7.25;0.43;;;7.20;99.90;;;;;;5080958;28;20059;-73
2023/01/15 02:26:48;;;;;;;8.95;0.47;;;7.30;99.90;;;;;;5065610;28;20036;-75
2023/01/15 02:29:19;;;;;;;10.27;0.60;;;7.30;99.90;;;;;;5061703;28;20146;-73
2023/01/15 02:31:50;;;;;;;10.02;1.25;;;7.30;99.90;;;;;;5078803;28;20099;-73
2023/01/15 02:34:31;;;;;;;13.95;0.75;;;7.20;99.90;;;;;;5080958;28;20035;-73
2023/01/15 02:37:03;;;;;;;8.15;0.47;;;7.20;99.90;;;;;;5067721;28;20661;-74
2023/01/15 02:39:31;;;;;;;10.23;0.95;;;7.20;99.90;;;;;;5054705;28;20033;-73
2023/01/15 02:42:01;;;;;;;9.98;0.50;;;7.20;99.90;;;;;;5056784;28;20089;-73
2023/01/15 02:44:29;;;;;;;4.70;0.40;;;7.20;99.90;;;;;;5076180;28;20054;-73
2023/01/15 02:46:57;;;;;;;8.90;0.70;;;7.10;99.90;;;;;;5080666;28;20020;-72
2023/01/15 02:49:22;;;;;;;5.85;0.43;;;7.10;99.90;;;;;;5059672;28;20165;-73
2023/01/15 02:51:57;;;;;;;5.13;0.60;;;7.10;99.90;;;;;;5059505;28;20082;-73
2023/01/15 02:54:25;;;;;;;10.48;0.70;;;7.00;99.90;;;;;;5072817;28;20025;-74
2023/01/15 02:56:52;;;;;;;9.68;0.60;;;7.00;99.90;;;;;;5065053;28;20096;-73
2023/01/15 02:59:23;;;;;;;5.68;1.45;;;7.00;99.90;;;;;;5070814;28;20029;-73
2023/01/15 03:01:56;;;;;;;8.65;0.40;;;7.00;99.90;;;;;;5056112;28;20021;-73
2023/01/15 03:04:26;;;;;;;;;;;7.00;99.90;;;;;;5068893;28;20032;-73
2023/01/15 03:07:03;;;;;;;6.85;0.55;;;6.90;99.90;;;;;;5057850;28;19927;-73
2023/01/15 03:09:29;;;;;;;10.00;0.68;;;6.90;99.90;;;;;;5068209;28;20103;-73
2023/01/15 03:12:21;;;;;;;7.65;0.40;;;7.00;99.90;;;;;;5063422;28;20056;-73
2023/01/15 03:15:10;;;;;;;6.88;0.50;;;7.00;99.90;;;;;;5053139;28;20033;-73
2023/01/15 03:18:01;;;;;;;6.30;0.40;;;7.00;99.90;;;;;;5063999;28;20036;-73
2023/01/15 03:20:28;;;;;;;12.07;0.90;;;7.00;99.90;;;;;;5068148;28;20885;-73
2023/01/15 03:23:03;;;;;;;7.65;0.50;;;7.00;99.90;;;;;;5062202;28;20028;-72
2023/01/15 03:25:39;;;;;;;5.32;0.50;;;6.90;99.90;;;;;;5072763;28;20021;-72
2023/01/15 03:28:06;;;;;;;7.82;0.50;;;7.00;99.90;;;;;;5077932;28;20173;-72
2023/01/15 03:30:32;;;;;;;5.57;0.43;;;7.00;99.90;;;;;;5064171;28;20024;-73
2023/01/15 03:32:58;;;;;;;3.47;0.50;;;6.90;99.90;;;;;;5058720;28;20376;-74
2023/01/15 03:35:58;;;;;;;4.50;0.57;;;6.90;99.90;;;;;;5057595;28;20029;-72
2023/01/15 03:38:31;;;;;;;8.60;0.70;;;7.00;99.90;;;;;;5062348;28;20059;-73
2023/01/15 03:41:05;;;;;;;6.68;0.60;;;6.90;99.90;;;;;;5060984;28;20036;-72
2023/01/15 03:43:56;;;;;;;7.22;0.60;;;6.90;99.90;;;;;;5049521;28;20052;-73
2023/01/15 03:46:31;;;;;;;9.50;0.50;;;6.90;99.90;;;;;;5063060;28;20503;-72
2023/01/15 03:49:30;;;;;;;9.35;0.70;;;6.90;99.90;;;;;;5085876;28;20033;-74
2023/01/15 03:52:14;;;;;;;5.85;0.40;;;6.90;99.90;;;;;;5066214;28;20029;-73
2023/01/15 03:55:01;;;;;;;8.65;0.95;;;6.90;99.90;;;;;;5069960;28;20040;-72
2023/01/15 03:57:38;;;;;;;7.25;0.40;;;6.80;99.90;;;;;;5069867;28;20033;-72
2023/01/15 04:00:34;;;;;;;10.73;0.88;;;6.80;99.90;;;;;;5061046;28;20512;-73
2023/01/15 04:03:02;;;;;;;7.68;0.40;;;6.80;99.90;;;;;;5056987;28;20029;-73
2023/01/15 04:05:30;;;;;;;5.93;0.52;;;6.80;99.90;;;;;;5070641;28;20181;-73
2023/01/15 04:07:56;;;;;;;9.38;0.63;;;6.80;99.90;;;;;;5067264;28;20028;-72
2023/01/15 04:10:22;;;;;;;9.98;0.57;;;6.80;99.90;;;;;;5057974;28;20025;-72
2023/01/15 04:12:48;;;;;;;6.95;0.60;;;6.80;99.90;;;;;;5059399;28;20028;-74
2023/01/15 04:15:14;;;;;;;6.18;0.40;;;6.80;99.90;;;;;;5069096;28;20020;-72
2023/01/15 04:17:39;;;;;;;11.00;0.75;;;6.70;99.90;;;;;;5068433;28;20515;-72
2023/01/15 04:20:06;;;;;;;8.63;0.63;;;6.70;99.90;;;;;;5060109;28;20033;-72
2023/01/15 04:22:32;;;;;;;9.00;1.05;;;6.70;99.90;;;;;;5063315;28;20100;-72
2023/01/15 04:24:57;;;;;;;9.65;0.45;;;6.60;99.90;;;;;;5061224;28;20146;-72
2023/01/15 04:27:23;;;;;;;8.93;0.50;;;6.70;99.90;;;;;;5059608;28;20511;-73
2023/01/15 04:29:48;;;;;;;5.75;0.50;;;6.60;99.90;;;;;;5066370;28;20025;-74
2023/01/15 04:32:14;;;;;;;7.70;0.80;;;6.60;99.90;;;;;;5061978;28;20028;-72
2023/01/15 04:34:39;;;;;;;9.30;0.55;;;6.60;99.90;;;;;;5066166;28;20039;-72
2023/01/15 04:37:05;;;;;;;12.52;0.80;;;6.60;99.90;;;;;;5073598;28;20111;-73
2023/01/15 04:39:31;;;;;;;7.85;0.65;;;6.60;99.90;;;;;;5060120;28;20076;-72
2023/01/15 04:44:41;;;;;;;8.60;0.85;;;6.60;99.90;;;;;;5057077;28;20071;-72
2023/01/15 04:47:07;;;;;;;5.57;0.38;;;6.50;99.90;;;;;;5061678;28;20107;-72
2023/01/15 04:49:33;;;;;;;8.40;0.90;;;6.50;99.90;;;;;;5074177;28;20036;-72
2023/01/15 04:51:58;;;;;;;10.50;0.70;;;6.50;99.90;;;;;;5071891;28;20115;-73
2023/01/15 04:54:24;;;;;;;6.88;0.40;;;6.40;99.90;;;;;;5057258;28;20112;-72
2023/01/15 04:56:52;;;;;;;8.90;0.50;;;6.40;99.90;;;;;;5061142;28;20017;-72
2023/01/15 04:59:20;;;;;;;5.93;0.40;;;6.30;99.90;;;;;;5062661;28;20037;-72
2023/01/15 05:01:45;;;;;;;5.05;0.45;;;6.30;99.90;;;;;;5078220;28;20083;-72
2023/01/15 05:04:11;;;;;;;9.43;0.82;;;6.30;99.90;;;;;;5074010;28;20021;-72
2023/01/15 05:06:37;;;;;;;7.38;0.47;;;6.20;99.90;;;;;;5067221;28;20024;-72
2023/01/15 05:09:03;;;;;;;9.93;0.73;;;6.30;99.90;;;;;;5069897;28;20020;-73
2023/01/15 05:11:30;;;;;;;10.10;1.00;;;6.20;99.90;;;;;;5074022;28;20033;-73
2023/01/15 05:13:56;;;;;;;10.52;0.60;;;6.30;99.90;;;;;;5064020;28;20028;-72
2023/01/15 05:16:24;;;;;;;12.10;0.77;;;6.30;99.90;;;;;;5084658;28;20086;-72
2023/01/15 05:18:51;;;;;;;8.60;0.70;;;6.20;99.90;;;;;;5072982;28;20503;-72
2023/01/15 05:21:19;;;;;;;13.68;0.90;;;6.20;99.90;;;;;;5069995;28;20032;-72
2023/01/15 05:23:45;;;;;;;7.90;0.40;;;6.20;99.90;;;;;;5074825;28;20024;-73
2023/01/15 05:26:11;;;;;;;5.55;0.43;;;6.20;99.90;;;;;;5068196;28;20029;-73
2023/01/15 05:28:37;;;;;;;9.15;0.77;;;6.20;99.90;;;;;;5072105;28;20029;-73
2023/01/15 05:31:11;;;;;;;11.10;1.05;;;6.20;99.90;;;;;;5064523;28;20143;-73
2023/01/15 05:33:37;;;;;;;5.65;0.55;;;6.20;99.90;;;;;;5053678;28;20121;-72
2023/01/15 05:36:06;;;;;;;5.50;0.40;;;6.20;99.90;;;;;;5065204;28;20067;-72
2023/01/15 05:38:32;;;;;;;9.07;0.60;;;6.20;99.90;;;;;;5065053;28;20033;-72
2023/01/15 05:40:58;;;;;;;8.30;0.82;;;6.20;99.90;;;;;;5062403;28;20523;-73
2023/01/15 05:43:23;;;;;;;11.55;0.80;;;6.20;99.90;;;;;;5061475;28;20056;-73
2023/01/15 05:45:49;;;;;;;7.47;0.63;;;6.20;99.90;;;;;;5066626;28;20060;-72
2023/01/15 05:48:14;;;;;;;6.03;0.50;;;6.20;99.90;;;;;;5069913;28;20388;-73
2023/01/15 05:50:40;;;;;;;11.10;0.90;;;6.20;99.90;;;;;;5065107;28;20028;-73
2023/01/15 05:53:06;;;;;;;7.22;0.30;;;6.20;99.90;;;;;;5075288;28;20043;-74
2023/01/15 05:55:31;;;;;;;13.20;0.85;;;6.20;99.90;;;;;;5068877;28;20027;-72
2023/01/15 05:57:57;;;;;;;7.20;0.50;;;6.20;99.90;;;;;;5073374;28;20021;-72
2023/01/15 06:00:24;;;;;;;7.82;0.65;;;6.20;99.90;;;;;;5055465;28;20366;-73
2023/01/15 06:02:50;;;;;;;4.28;0.40;;;6.20;99.90;;;;;;5075587;28;20020;-73
2023/01/15 06:05:19;;;;;;;9.85;1.52;;;6.20;99.90;;;;;;5070688;28;20035;-73
2023/01/15 06:07:51;;;;;;;11.30;1.70;;;6.20;99.90;;;;;;5058089;28;20086;-73
2023/01/15 06:10:17;;;;;;;5.17;0.70;;;6.20;99.90;;;;;;5054689;28;20025;-73
2023/01/15 06:12:43;;;;;;;9.88;0.77;;;6.20;99.90;;;;;;5057556;28;20275;-73
2023/01/15 06:15:10;;;;;;;6.97;0.43;;;6.20;99.90;;;;;;5057567;28;20033;-73
2023/01/15 06:17:36;;;;;;;8.77;0.40;;;6.20;99.90;;;;;;5062983;28;20029;-73
2023/01/15 06:20:02;;;;;;;10.07;0.63;;;6.20;99.90;;;;;;5066119;28;20036;-73
2023/01/15 06:22:28;;;;;;;9.02;0.45;;;6.20;99.90;;;;;;5059785;28;20070;-72
2023/01/15 06:24:54;;;;;;;6.70;0.55;;;6.20;99.90;;;;;;5066025;28;20029;-72
2023/01/15 06:27:19;;;;;;;5.97;0.70;;;6.20;99.90;;;;;;5054248;28;20024;-73
2023/01/15 06:29:45;;;;;;;8.30;1.25;;;6.20;99.90;;;;;;5063469;28;20037;-72
2023/01/15 06:32:10;;;;;;;10.38;0.50;;;6.20;99.90;;;;;;5060067;28;20473;-73
2023/01/15 06:34:36;;;;;;;8.90;0.60;;;6.20;99.90;;;;;;5056688;28;20044;-72
2023/01/15 06:37:01;;;;;;;6.65;0.40;;;6.10;99.90;;;;;;5066520;28;20021;-72
2023/01/15 06:39:27;;;;;;;6.75;0.40;;;6.10;99.90;;;;;;5065959;28;20037;-73
2023/01/15 06:47:21;;;;;;;8.45;0.60;;;6.10;99.90;;;;;;5052631;28;20029;-73
2023/01/15 06:49:57;;;;;;;8.55;0.55;;;6.00;99.90;;;;;;5064311;28;20036;-72
2023/01/15 06:52:24;;;;;;;10.05;0.55;;;6.10;99.90;;;;;;5061380;28;20048;-72
2023/01/15 06:54:50;;;;;;;9.82;0.63;;;6.00;99.90;;;;;;5055084;28;20085;-72
2023/01/15 06:57:17;;;;;;;6.68;0.95;;;6.00;99.90;;;;;;5050601;28;20485;-72
2023/01/15 06:59:43;;;;;;;11.63;0.65;;;6.00;99.90;;;;;;5051097;28;20032;-73
2023/01/15 07:02:10;;;;;;;7.05;0.47;;;6.00;99.90;;;;;;5053451;28;20477;-73
2023/01/15 07:04:35;;;;;;;8.68;0.73;;;5.90;99.90;;;;;;5072592;28;20028;-72
2023/01/15 07:07:02;;;;;;;7.55;0.45;;;5.90;99.90;;;;;;5062791;28;20033;-72
2023/01/15 07:09:28;;;;;;;13.98;1.70;;;5.90;99.90;;;;;;5056047;28;20473;-70
2023/01/15 07:11:53;;;;;;;8.00;0.50;;;5.90;99.90;;;;;;5053854;28;20033;-71
2023/01/15 07:14:24;;;;;;;7.97;0.55;;;5.90;99.90;;;;;;5051991;28;20404;-72
2023/01/15 07:16:50;;;;;;;6.07;0.65;;;5.90;99.90;;;;;;5051509;28;20070;-71
2023/01/15 07:19:16;;;;;;;11.52;0.40;;;5.90;99.90;;;;;;5063915;28;20119;-71
2023/01/15 07:21:42;;;;;;;8.27;0.50;;;5.80;99.90;;;;;;5067630;28;20488;-71
2023/01/15 07:24:09;;;;;;;7.53;0.85;;;5.80;99.90;;;;;;5059924;28;20058;-71
2023/01/15 07:26:35;;;;;;;8.40;0.73;;;5.80;99.90;;;;;;5071110;28;20027;-71
2023/01/15 07:29:01;;;;;;;9.57;0.60;;;5.80;99.90;;;;;;5059853;28;20029;-71
2023/01/15 07:31:26;;;;;;;7.40;0.57;;;5.90;99.90;;;;;;5054744;28;20021;-71
2023/01/15 07:33:52;;;;;;;8.45;0.70;;;5.90;99.90;;;;;;5060638;28;20025;-72
2023/01/15 07:36:17;;;;;;;6.22;0.40;;;5.80;99.90;;;;;;5055165;28;20048;-72
2023/01/15 07:38:43;;;;;;;6.45;0.40;;;5.80;99.90;;;;;;5065892;28;20036;-71
2023/01/15 07:52:05;;;;;;;9.48;0.57;;;5.80;99.90;;;;;;5065719;28;20039;-73
2023/01/15 07:54:30;;;;;;;10.40;0.88;;;5.70;99.90;;;;;;5065361;28;20111;-72
2023/01/15 07:56:56;;;;;;;6.50;1.33;;;5.70;99.90;;;;;;5060934;28;20499;-73
2023/01/15 07:59:21;;;;;;;11.00;1.15;;;5.70;99.90;;;;;;5053208;28;20036;-72
2023/01/15 08:01:47;;;;;;;7.22;0.40;;;5.70;99.90;;;;;;5050968;28;20492;-72
2023/01/15 08:04:13;;;;;;;8.43;0.63;;;5.70;99.90;;;;;;5073868;28;20047;-72
2023/01/15 08:06:38;;;;;;;8.43;0.65;;;5.80;99.90;;;;;;5067737;28;20028;-73
2023/01/15 08:09:04;;;;;;;10.27;0.60;;;5.70;99.90;;;;;;5066955;28;20029;-72
2023/01/15 08:16:59;;;;;;;4.47;0.50;;;5.70;99.90;;;;;;5062643;28;20055;-73
2023/01/15 08:19:28;;;;;;;13.35;0.70;;;5.70;99.90;;;;;;5059634;28;20037;-73
2023/01/15 08:21:54;;;;;;;6.15;0.85;;;5.70;99.90;;;;;;5077406;28;20017;-72
2023/01/15 08:24:19;;;;;;;5.05;0.50;;;5.70;99.90;;;;;;5066817;28;20094;-72
2023/01/15 08:26:45;;;;;;;3.00;0.40;;;5.70;99.90;;;;;;5069531;28;20024;-73
2023/01/15 08:29:10;;;;;;;6.68;1.02;;;5.70;99.90;;;;;;5052892;28;20513;-73
2023/01/15 08:31:36;;;;;;;4.80;0.40;;;5.70;99.90;;;;;;5065437;28;20033;-73
2023/01/15 08:34:02;;;;;;;9.27;1.27;;;5.80;99.90;;;;;;5066327;28;20108;-73
2023/01/15 08:36:28;;;;;;;7.63;0.70;;;5.80;99.90;;;;;;5073796;28;20032;-73
2023/01/15 08:38:53;;;;;;;7.78;0.43;;;5.90;99.90;;;;;;5059662;28;20040;-73
2023/01/15 08:41:19;;;;;;;7.88;0.50;;;5.90;99.90;;;;;;5074065;28;20052;-73
2023/01/15 08:43:45;;;;;;;7.22;0.40;;;5.90;99.90;;;;;;5059137;28;20037;-73
2023/01/15 08:46:10;;;;;;;6.03;0.40;;;5.90;99.90;;;;;;5069419;28;20551;-74
2023/01/15 08:48:36;;;;;;;8.68;0.50;;;5.90;99.90;;;;;;5066300;28;20055;-73
2023/01/15 08:51:06;;;;;;;7.80;1.08;;;5.90;99.90;;;;;;5055366;28;20035;-73
2023/01/15 08:53:33;;;;;;;5.82;0.60;;;6.00;99.90;;;;;;5059086;28;20028;-74
2023/01/15 08:55:58;;;;;;;2.97;0.30;;;6.00;99.90;;;;;;5057276;28;20392;-73
2023/01/15 08:58:32;;;;;;;3.92;0.35;;;6.00;99.90;;;;;;5071404;28;20024;-73
2023/01/15 09:01:05;;;;;;;13.30;0.85;;;6.00;99.90;;;;;;5066830;28;20025;-73
2023/01/15 09:03:31;;;;;;;3.83;0.50;;;6.00;99.90;;;;;;5056523;28;22330;-73
2023/01/15 09:05:58;;;;;;;6.30;0.40;;;6.10;99.90;;;;;;5058419;28;20025;-73
2023/01/15 09:08:24;;;;;;;6.70;0.50;;;6.10;99.90;;;;;;5064336;28;20484;-73
2023/01/15 09:10:49;;;;;;;7.40;0.40;;;6.10;99.90;;;;;;5064460;28;20067;-73
2023/01/15 09:13:15;;;;;;;4.60;0.30;;;6.10;99.90;;;;;;5054360;28;20029;-72
2023/01/15 09:15:41;;;;;;;5.43;0.47;;;6.10;99.90;;;;;;5066000;28;20033;-73
2023/01/15 09:18:09;;;;;;;7.53;0.50;;;6.20;99.90;;;;;;5062355;28;20082;-74
2023/01/15 09:20:35;;;;;;;9.23;0.68;;;6.20;99.90;;;;;;5067217;28;20039;-74
2023/01/15 09:23:00;;;;;;;6.40;0.40;;;6.20;99.90;;;;;;5072774;28;20028;-73
2023/01/15 09:25:26;;;;;;;5.80;0.50;;;6.20;99.90;;;;;;5066089;28;20028;-73
2023/01/15 09:27:55;;;;;;;8.60;0.45;;;6.30;99.90;;;;;;5053488;28;20390;-73
2023/01/15 09:30:21;;;;;;;6.30;0.40;;;6.30;99.90;;;;;;5066642;28;20480;-77
2023/01/15 09:32:47;;;;;;;5.57;0.32;;;6.30;99.90;;;;;;5071465;28;20062;-73
2023/01/15 09:35:13;;;;;;;3.55;0.32;;;6.40;99.90;;;;;;5083018;28;20025;-74
2023/01/15 09:37:38;;;;;;;8.52;0.40;;;6.40;99.90;;;;;;5069185;28;20093;-73
2023/01/15 09:40:07;;;;;;;14.10;0.50;;;6.40;99.90;;;;;;5062164;28;20545;-75
2023/01/15 09:42:49;;;;;;;6.38;0.30;;;6.50;99.90;;;;;;5070984;28;20542;-73
2023/01/15 09:45:33;;;;;;;9.32;0.55;;;6.50;99.90;;;;;;5082675;28;20041;-74
2023/01/15 09:48:11;;;;;;;7.13;0.63;;;6.50;99.90;;;;;;5064580;28;20021;-73
2023/01/15 09:50:51;;;;;;;8.90;0.70;;;6.50;99.90;;;;;;5053138;28;20067;-72
2023/01/15 09:53:29;;;;;;;4.43;0.65;;;6.50;99.90;;;;;;5074624;28;20055;-73
2023/01/15 09:55:56;;;;;;;9.45;0.70;;;6.50;99.90;;;;;;5064064;28;20028;-72
2023/01/15 09:58:38;;;;;;;8.57;0.40;;;6.60;99.90;;;;;;5057033;28;20021;-72
2023/01/15 10:01:05;;;;;;;4.80;0.30;;;6.70;99.90;;;;;;5064105;28;20536;-72
2023/01/15 10:03:44;;;;;;;8.82;0.60;;;6.70;99.90;;;;;;5057008;28;20064;-72
2023/01/15 10:06:28;;;;;;;4.78;0.52;;;6.80;99.90;;;;;;5060172;28;20021;-72
2023/01/15 10:09:01;;;;;;;7.32;0.40;;;6.90;99.90;;;;;;5070520;28;20482;-72
2023/01/15 10:14:37;;;;;;;4.93;0.63;;;7.00;99.90;;;;;;5051246;28;20028;-70
2023/01/15 10:17:09;;;;;;;12.52;1.13;;;7.00;99.90;;;;;;5065754;28;20035;-75
2023/01/15 10:19:37;;;;;;;8.00;0.50;;;7.00;99.90;;;;;;5055684;28;20128;-72
2023/01/15 10:22:13;;;;;;;4.97;0.50;;;7.10;99.90;;;;;;5066429;28;20032;-71
2023/01/15 10:24:45;;;;;;;8.07;0.40;;;7.10;99.90;;;;;;5059677;28;20495;-69
2023/01/15 10:27:20;;;;;;;8.55;0.55;;;7.20;99.90;;;;;;5070548;28;20028;-69
2023/01/15 10:29:53;;;;;;;4.20;0.43;;;7.20;99.90;;;;;;5068780;28;20277;-71
2023/01/15 10:32:35;;;;;;;5.95;0.40;;;7.20;99.90;;;;;;5059555;28;20469;-71
2023/01/15 10:35:25;;;;;;;5.85;0.40;;;7.30;99.90;;;;;;5071615;28;20040;-71
2023/01/15 10:38:36;;;;;;;7.30;1.17;;;7.30;99.90;;;;;;5067704;28;20382;-72
2023/01/15 10:41:16;;;;;;;8.48;0.50;;;7.30;99.90;;;;;;5011094;28;20048;-72
2023/01/15 10:44:13;;;;;;;10.93;1.13;;;7.40;99.90;;;;;;5001779;28;20050;-73
2023/01/15 10:46:43;;;;;;;5.47;0.50;;;7.40;99.90;;;;;;5043707;28;20396;-72
2023/01/15 10:49:17;;;;;;;8.45;0.88;;;7.50;99.90;;;;;;5065988;28;20082;-72
2023/01/15 10:51:57;;;;;;;7.32;0.40;;;7.50;99.90;;;;;;5063591;28;20036;-72
2023/01/15 10:54:32;;;;;;;9.02;0.73;;;7.50;99.90;;;;;;5071218;28;20025;-73
2023/01/15 10:57:10;;;;;;;5.30;0.40;;;7.50;99.90;;;;;;5057566;28;20029;-73
2023/01/15 10:59:47;;;;;;;8.15;0.60;;;7.60;99.90;;;;;;5068483;28;20062;-72
2023/01/15 11:02:44;;;;;;;6.85;0.50;;;7.60;99.90;;;;;;5050757;28;20032;-73
2023/01/15 11:05:21;;;;;;;6.65;0.88;;;7.60;99.90;;;;;;5063390;28;20162;-73
2023/01/15 11:07:49;;;;;;;5.53;0.57;;;7.60;99.90;;;;;;5069500;28;20033;-72
2023/01/15 11:10:18;;;;;;;9.38;0.70;;;7.70;99.90;;;;;;5064995;28;20021;-72
2023/01/15 11:21:26;;;;;;;9.13;1.02;;;7.90;99.90;;;;;;5066410;28;20032;-73
2023/01/15 11:23:54;;;;;;;6.13;0.40;;;7.90;99.90;;;;;;5068191;28;20017;-73
2023/01/15 11:26:26;;;;;;;5.00;0.40;;;7.90;99.90;;;;;;5070774;28;20033;-72
2023/01/15 11:28:57;;;;;;;8.00;0.50;;;7.80;99.90;;;;;;5078121;28;20454;-72
2023/01/15 11:31:34;;;;;;;6.70;0.50;;;7.80;99.90;;;;;;5079359;28;20039;-73
2023/01/15 11:34:02;;;;;;;6.65;0.60;;;7.80;99.90;;;;;;5051270;28;20388;-72
2023/01/15 11:36:28;;;;;;;4.32;0.50;;;7.80;99.90;;;;;;5054704;28;20036;-73
2023/01/15 11:38:55;;;;;;;5.72;0.50;;;7.80;99.90;;;;;;5057909;28;20040;-73
2023/01/15 11:52:42;;;;;;;4.18;0.30;;;8.00;99.90;;;;;;5070557;28;20063;-73
2023/01/15 11:55:13;;;;;;;6.13;0.60;;;8.20;99.90;;;;;;5064329;28;20036;-73
2023/01/15 11:57:39;;;;;;;6.13;0.35;;;8.20;99.90;;;;;;5078285;28;20086;-72
2023/01/15 12:00:06;;;;;;;5.63;0.30;;;8.30;99.90;;;;;;5066528;28;20040;-72
2023/01/15 12:02:42;;;;;;;8.35;0.70;;;8.40;99.90;;;;;;5069686;28;20103;-72
2023/01/15 12:05:20;;;;;;;3.90;0.28;;;8.40;99.90;;;;;;5065035;28;20107;-72
2023/01/15 12:07:48;;;;;;;3.25;0.30;;;8.30;99.90;;;;;;5069870;28;20485;-73
2023/01/15 12:11:02;;;;;;;4.90;0.68;;;8.30;99.90;;;;;;5071042;28;20036;-72
2023/01/15 12:13:33;;;;;;;5.78;0.30;;;8.20;99.90;;;;;;5069976;28;20051;-73
2023/01/15 12:16:10;;;;;;;3.53;0.30;;;8.20;99.90;;;;;;5065286;28;20033;-73
2023/01/15 12:18:56;;;;;;;7.30;0.40;;;8.20;99.90;;;;;;5082812;28;20029;-73
2023/01/15 12:22:03;;;;;;;6.72;0.40;;;8.20;99.90;;;;;;5059657;28;20051;-73
2023/01/15 12:24:41;;;;;;;5.75;0.52;;;8.10;99.90;;;;;;4984411;28;20081;-73
2023/01/15 12:27:51;;;;;;;6.90;0.40;;;8.10;99.90;;;;;;4989046;28;20449;-73
2023/01/15 12:30:39;;;;;;;6.85;0.40;;;8.10;99.90;;;;;;5044119;28;20037;-73
2023/01/15 12:33:11;;;;;;;2.22;0.20;;;8.10;99.90;;;;;;5051867;28;20027;-73
2023/01/15 12:35:42;;;;;;;1.67;0.20;;;8.00;99.90;;;;;;5052200;28;20031;-73
2023/01/15 12:38:19;;;;;;;4.38;0.40;;;8.20;99.90;;;;;;5053154;28;20025;-73
2023/01/15 12:40:56;;;;;;;3.20;0.40;;;8.10;99.90;;;;;;5076851;28;20048;-74
2023/01/15 12:46:27;;;;;;;3.45;0.30;;;8.10;99.90;;;;;;5058559;28;20052;-73
2023/01/15 12:48:58;;;;;;;;;;;8.10;99.90;;;;;;5060861;28;20043;-73
2023/01/15 12:51:50;;;;;;;4.03;0.40;;;7.90;99.90;;;;;;5065889;28;19909;-72
2023/01/15 12:54:27;;;;;;;5.38;0.30;;;7.80;99.90;;;;;;5069108;28;20029;-72
2023/01/15 12:57:15;;;;;;;3.13;0.47;;;7.70;99.90;;;;;;5064571;28;20072;-72
2023/01/15 12:59:53;;;;;;;3.15;0.30;;;7.60;99.90;;;;;;5072598;28;20045;-72
2023/01/15 13:02:32;;;;;;;2.63;0.25;;;7.60;99.90;;;;;;5068686;28;20112;-72
2023/01/15 13:05:15;;;;;;;3.17;0.25;;;7.60;99.90;;;;;;5062374;28;20541;-72
2023/01/15 13:07:55;;;;;;;7.88;0.30;;;7.60;99.90;;;;;;5072044;28;20727;-72
2023/01/15 13:10:26;;;;;;;5.63;0.85;;;7.60;99.90;;;;;;5073181;28;20131;-72
2023/01/15 13:12:54;;;;;;;4.70;0.32;;;7.60;99.90;;;;;;5054393;28;20057;-72
2023/01/15 13:15:27;;;;;;;8.10;0.30;;;7.60;99.90;;;;;;5069358;28;20024;-72
2023/01/15 13:18:13;;;;;;;6.53;0.40;;;7.60;99.90;;;;;;5068754;28;20485;-72
2023/01/15 13:20:53;;;;;;;5.10;0.50;;;7.70;99.90;;;;;;5063995;28;20487;-72
2023/01/15 13:23:47;;;;;;;3.80;0.30;;;7.90;99.90;;;;;;5073738;28;20016;-72
2023/01/15 13:26:40;;;;;;;5.70;0.30;;;7.90;99.90;;;;;;5072723;28;20031;-71
2023/01/15 13:29:31;;;;;;;6.38;0.57;;;8.00;99.90;;;;;;5067493;28;20554;-72
2023/01/15 13:32:08;;;;;;;3.83;0.40;;;7.90;99.90;;;;;;5069062;28;20369;-72
2023/01/15 13:34:34;;;;;;;6.32;0.45;;;7.70;99.90;;;;;;5052977;28;20025;-72
2023/01/15 13:37:27;;;;;;;3.67;0.30;;;7.70;99.90;;;;;;5057892;28;20039;-71
2023/01/15 13:40:00;;;;;;;4.32;0.20;;;7.60;99.90;;;;;;5060360;28;20497;-72
2023/01/15 13:42:33;;;;;;;4.07;0.32;;;7.50;99.90;;;;;;5069314;28;20028;-73
2023/01/15 13:45:06;;;;;;;5.18;0.63;;;7.40;99.90;;;;;;5067166;28;20124;-72
2023/01/15 13:47:37;;;;;;;6.68;0.40;;;7.30;99.90;;;;;;5056629;28;20073;-72
2023/01/15 13:50:15;;;;;;;7.70;0.73;;;7.20;99.90;;;;;;5069246;28;20020;-73
2023/01/15 13:52:41;;;;;;;4.55;0.50;;;7.20;99.90;;;;;;5065738;28;20025;-72
2023/01/15 13:55:15;;;;;;;6.90;1.05;;;7.20;99.90;;;;;;5064292;28;20044;-73
2023/01/15 13:57:42;;;;;;;5.97;0.40;;;7.20;99.90;;;;;;5055915;28;20036;-73
2023/01/15 14:00:35;;;;;;;4.07;0.38;;;7.10;99.90;;;;;;5070285;28;20054;-72
2023/01/15 14:03:25;;;;;;;3.70;0.40;;;7.20;99.90;;;;;;5072337;28;20076;-73
2023/01/15 14:05:55;;;;;;;3.22;0.30;;;7.30;99.90;;;;;;5071348;28;20059;-72
2023/01/15 14:08:45;;;;;;;4.50;0.80;;;7.30;99.90;;;;;;5063537;28;20027;-72